Time;durP1;ratioP1;P1;durP2;ratioP2;P2;SDS_P1;SDS_P2;PMS_P1;PMS_P2;Temp;Humidity;BMP_temperature;BMP_pressure;BME280_temperature;BME280_humidity;BME280_pressure;Samples;Min_cycle;Max_cycle;Signal;HPM_P1;HPM_P2
2023/07/31 00:01:56;;;;;;;0.00;0.00;;;;;;;16.28;100.00;101025.97;5031466;28;20536;-38
2023/07/31 00:04:21;;;;;;;0.00;0.00;;;;;;;16.28;100.00;101022.44;5032267;28;20392;-38
2023/07/31 00:06:47;;;;;;;0.00;0.00;;;;;;;16.29;100.00;101021.38;5031445;28;20053;-42
2023/07/31 00:09:12;;;;;;;0.00;0.00;;;;;;;16.32;100.00;101020.94;5030905;28;20033;-44
2023/07/31 00:11:38;;;;;;;0.00;0.00;;;;;;;16.33;100.00;101023.44;5030685;28;20105;-47
2023/07/31 00:14:03;;;;;;;0.00;0.00;;;;;;;16.30;100.00;101021.16;5032234;28;20029;-44
2023/07/31 00:16:29;;;;;;;0.00;0.00;;;;;;;16.24;100.00;101020.16;5033785;28;20025;-45
2023/07/31 00:18:54;;;;;;;0.00;0.00;;;;;;;16.21;100.00;101011.59;5033726;28;20357;-44
2023/07/31 00:21:20;;;;;;;0.00;0.00;;;;;;;16.20;100.00;101021.63;5034535;28;20375;-44
2023/07/31 00:23:45;;;;;;;0.00;0.00;;;;;;;16.20;100.00;101013.47;5032131;28;20036;-45
2023/07/31 00:26:10;;;;;;;0.00;0.00;;;;;;;16.19;100.00;101016.38;5031252;28;20021;-46
2023/07/31 00:28:36;;;;;;;0.00;0.00;;;;;;;16.19;100.00;101013.66;5032881;28;20056;-45
2023/07/31 00:31:03;;;;;;;0.00;0.00;;;;;;;16.19;100.00;101011.81;5035056;28;20033;-46
2023/07/31 00:33:29;;;;;;;0.00;0.00;;;;;;;16.17;100.00;101021.22;5034654;28;20511;-46
2023/07/31 00:35:54;;;;;;;0.00;0.00;;;;;;;16.21;100.00;101025.97;5034232;28;20021;-45
2023/07/31 00:38:20;;;;;;;0.00;0.00;;;;;;;16.23;100.00;101015.75;5034519;28;20052;-46
2023/07/31 00:40:45;;;;;;;0.00;0.00;;;;;;;16.20;100.00;101024.34;5034346;28;20045;-45
2023/07/31 00:43:11;;;;;;;0.05;0.05;;;;;;;16.18;100.00;101015.56;5034170;28;20397;-47
2023/07/31 00:45:36;;;;;;;0.00;0.00;;;;;;;16.15;100.00;101007.03;5034379;28;20419;-47
2023/07/31 00:48:01;;;;;;;0.00;0.00;;;;;;;16.14;100.00;101008.06;5034284;28;20080;-47
2023/07/31 00:50:28;;;;;;;0.00;0.00;;;;;;;16.13;100.00;101011.81;5032753;28;20029;-46
2023/07/31 00:52:53;;;;;;;0.00;0.00;;;;;;;16.13;100.00;101003.69;5033826;28;20407;-49
2023/07/31 00:55:18;;;;;;;0.00;0.00;;;;;;;16.16;100.00;101017.66;5034251;28;20100;-48
2023/07/31 00:57:45;;;;;;;0.00;0.00;;;;;;;16.16;100.00;101012.22;5049131;28;20049;-44
2023/07/31 01:00:11;;;;;;;0.00;0.00;;;;;;;16.16;100.00;101016.81;5033973;28;20109;-46
2023/07/31 01:02:36;;;;;;;0.00;0.00;;;;;;;16.14;100.00;101006.19;5033836;28;20037;-46
2023/07/31 01:05:03;;;;;;;0.00;0.00;;;;;;;16.10;100.00;100996.78;5033780;28;20064;-45
2023/07/31 01:07:40;;;;;;;0.00;0.00;;;;;;;16.05;100.00;101001.22;5033641;28;20026;-45
2023/07/31 01:10:21;;;;;;;0.00;0.00;;;;;;;16.02;100.00;100988.88;5032333;28;20037;-43
2023/07/31 01:12:47;;;;;;;0.00;0.00;;;;;;;16.01;100.00;100993.50;5033830;28;20033;-45
2023/07/31 01:15:14;;;;;;;0.00;0.00;;;;;;;16.07;100.00;100996.41;5033578;28;20040;-46
2023/07/31 01:17:41;;;;;;;0.00;0.00;;;;;;;16.06;100.00;100990.16;5033477;28;20499;-44
2023/07/31 01:20:17;;;;;;;0.00;0.00;;;;;;;16.08;100.00;100987.19;5033570;28;20284;-45
2023/07/31 01:22:45;;;;;;;0.10;0.10;;;;;;;16.09;100.00;100983.41;5033233;28;20022;-44
2023/07/31 01:25:23;;;;;;;0.00;0.00;;;;;;;16.09;100.00;100984.28;5033588;28;20035;-43
2023/07/31 01:28:02;;;;;;;0.00;0.00;;;;;;;16.12;100.00;100977.59;5032138;28;20468;-44
2023/07/31 01:30:33;;;;;;;0.00;0.00;;;;;;;16.13;100.00;100973.81;5048719;28;20468;-44
2023/07/31 01:32:59;;;;;;;0.00;0.00;;;;;;;16.13;100.00;100968.38;5032943;28;20467;-43
2023/07/31 01:35:25;;;;;;;0.00;0.00;;;;;;;16.10;100.00;100963.38;5032075;28;20043;-44
2023/07/31 01:37:53;;;;;;;0.00;0.00;;;;;;;16.13;100.00;100965.66;5031795;28;20431;-45
2023/07/31 01:40:19;;;;;;;0.00;0.00;;;;;;;16.13;100.00;100957.53;5032889;28;20439;-46
2023/07/31 01:42:44;;;;;;;0.10;0.10;;;;;;;16.17;100.00;100942.47;5033275;28;20022;-45
2023/07/31 01:45:10;;;;;;;0.00;0.00;;;;;;;16.20;100.00;100948.28;5034104;28;20045;-44
2023/07/31 01:47:35;;;;;;;0.00;0.00;;;;;;;16.21;100.00;100933.66;5033146;28;20021;-44
2023/07/31 01:50:01;;;;;;;0.00;0.00;;;;;;;16.22;100.00;100923.66;5033312;28;20026;-46
2023/07/31 01:52:26;;;;;;;0.00;0.00;;;;;;;16.27;100.00;100920.25;5033680;28;20112;-45
2023/07/31 01:54:52;;;;;;;0.00;0.00;;;;;;;16.26;100.00;100908.56;5034077;28;20505;-45
2023/07/31 01:57:17;;;;;;;0.00;0.00;;;;;;;16.28;100.00;100900.22;5032966;28;20488;-46
2023/07/31 01:59:42;;;;;;;0.00;0.00;;;;;;;16.28;100.00;100894.78;5031683;28;20061;-45
2023/07/31 02:02:08;;;;;;;0.00;0.00;;;;;;;16.26;100.00;100903.13;5032546;28;20038;-44
2023/07/31 02:04:34;;;;;;;0.00;0.00;;;;;;;16.26;100.00;100892.28;5032772;28;20430;-43
2023/07/31 02:06:59;;;;;;;0.00;0.00;;;;;;;16.29;100.00;100878.25;5031042;28;20029;-45
2023/07/31 02:09:24;;;;;;;0.00;0.00;;;;;;;16.31;100.00;100878.06;5032623;28;20018;-47
2023/07/31 02:11:50;;;;;;;0.00;0.00;;;;;;;16.30;100.00;100882.66;5032463;28;20025;-43
2023/07/31 02:14:15;;;;;;;0.00;0.00;;;;;;;16.30;100.00;100888.09;5032288;28;20369;-44
2023/07/31 02:16:42;;;;;;;0.00;0.00;;;;;;;16.31;100.00;100868.00;5030985;28;20025;-46
2023/07/31 02:19:08;;;;;;;0.00;0.00;;;;;;;16.34;100.00;100877.59;5032711;28;20088;-44
2023/07/31 02:21:33;;;;;;;0.00;0.00;;;;;;;16.35;100.00;100865.69;5032230;28;20483;-49
2023/07/31 02:23:58;;;;;;;0.00;0.00;;;;;;;16.36;100.00;100872.78;5032087;28;20117;-48
2023/07/31 02:26:24;;;;;;;0.00;0.00;;;;;;;16.36;100.00;100864.66;5032612;28;20036;-48
2023/07/31 02:28:49;;;;;;;0.00;0.00;;;;;;;16.36;100.00;100878.22;5031950;28;20021;-42
2023/07/31 02:31:14;;;;;;;0.00;0.00;;;;;;;16.34;100.00;100864.84;5032039;28;20068;-46
2023/07/31 02:33:40;;;;;;;0.00;0.00;;;;;;;16.34;100.00;100873.00;5032118;28;20041;-45
2023/07/31 02:36:05;;;;;;;0.00;0.00;;;;;;;16.33;100.00;100867.81;5032102;28;20041;-49
2023/07/31 02:38:30;;;;;;;0.00;0.00;;;;;;;16.34;100.00;100862.13;5031892;28;20082;-43
2023/07/31 02:40:56;;;;;;;0.00;0.00;;;;;;;16.37;100.00;100856.25;5031926;28;20032;-46
2023/07/31 02:43:21;;;;;;;0.00;0.00;;;;;;;16.38;100.00;100840.81;5031692;28;20606;-49
2023/07/31 02:45:51;;;;;;;0.00;0.00;;;;;;;16.39;100.00;100840.59;5031755;28;20029;-48
2023/07/31 02:48:16;;;;;;;0.00;0.00;;;;;;;16.36;100.00;100827.44;5031931;28;20029;-49
2023/07/31 02:50:42;;;;;;;0.00;0.00;;;;;;;16.35;100.00;100841.25;5031806;28;20040;-46
2023/07/31 02:53:07;;;;;;;0.00;0.00;;;;;;;16.35;100.00;100820.38;5030573;28;20117;-46
2023/07/31 02:55:32;;;;;;;0.00;0.00;;;;;;;16.36;100.00;100826.63;5031594;28;20238;-48
2023/07/31 02:57:58;;;;;;;0.00;0.00;;;;;;;16.37;100.00;100817.41;5031277;28;20052;-49
2023/07/31 03:00:24;;;;;;;0.00;0.00;;;;;;;16.38;100.00;100819.09;5031619;28;20036;-47
2023/07/31 03:02:49;;;;;;;0.00;0.00;;;;;;;16.39;100.00;100827.00;5030066;28;20369;-47
2023/07/31 03:05:15;;;;;;;0.00;0.00;;;;;;;16.39;100.00;100816.13;5031496;28;20041;-44
2023/07/31 03:07:40;;;;;;;0.00;0.00;;;;;;;16.41;100.00;100803.19;5031497;28;20022;-46
2023/07/31 03:10:06;;;;;;;0.00;0.00;;;;;;;16.43;100.00;100805.69;5031192;28;20037;-46
2023/07/31 03:12:31;;;;;;;0.00;0.00;;;;;;;16.46;100.00;100807.94;5031490;28;20127;-44
2023/07/31 03:14:57;;;;;;;0.00;0.00;;;;;;;16.49;100.00;100803.97;5030271;28;20036;-44
2023/07/31 03:17:22;;;;;;;0.00;0.00;;;;;;;16.53;100.00;100816.03;5031427;28;20065;-47
2023/07/31 03:19:47;;;;;;;0.00;0.00;;;;;;;16.55;100.00;100800.34;5031292;28;20061;-49
2023/07/31 03:22:13;;;;;;;0.00;0.00;;;;;;;16.49;100.00;100815.66;5031287;28;20376;-47
2023/07/31 03:24:38;;;;;;;0.00;0.00;;;;;;;16.42;100.00;100809.44;5031103;28;20112;-46
2023/07/31 03:27:04;;;;;;;0.00;0.00;;;;;;;16.37;100.00;100817.41;5031142;28;20403;-47
2023/07/31 03:29:29;;;;;;;0.00;0.00;;;;;;;16.36;100.00;100807.59;5030921;28;20087;-46
2023/07/31 03:31:55;;;;;;;0.00;0.00;;;;;;;16.33;100.00;100808.88;5046749;28;20025;-48
2023/07/31 03:34:20;;;;;;;0.00;0.00;;;;;;;16.33;100.00;100806.16;5030701;28;20439;-47
2023/07/31 03:36:45;;;;;;;0.00;0.00;;;;;;;16.34;100.00;100796.94;5031159;28;20057;-49
2023/07/31 03:39:11;;;;;;;0.00;0.00;;;;;;;16.30;100.00;100801.19;5030929;28;20036;-48
2023/07/31 03:41:36;;;;;;;0.00;0.00;;;;;;;16.29;100.00;100802.22;5030889;28;20159;-46
2023/07/31 03:44:01;;;;;;;0.00;0.00;;;;;;;16.29;100.00;100802.22;5030644;28;20395;-46
2023/07/31 03:46:27;;;;;;;0.00;0.00;;;;;;;16.24;100.00;100812.91;5031057;28;20029;-48
2023/07/31 03:48:52;;;;;;;0.00;0.00;;;;;;;16.18;100.00;100800.22;5031077;28;20471;-51
2023/07/31 03:51:18;;;;;;;0.00;0.00;;;;;;;16.15;100.00;100804.19;5029841;28;20076;-51
2023/07/31 03:53:44;;;;;;;0.00;0.00;;;;;;;16.10;100.00;100805.91;5030950;28;20030;-48
2023/07/31 03:56:09;;;;;;;0.00;0.00;;;;;;;16.08;100.00;100814.28;5031154;28;20049;-48
2023/07/31 03:58:36;;;;;;;0.00;0.00;;;;;;;16.01;100.00;100803.47;5030969;28;20042;-46
2023/07/31 04:01:02;;;;;;;0.00;0.00;;;;;;;15.97;100.00;100799.50;5030944;28;20029;-50
2023/07/31 04:03:27;;;;;;;0.00;0.00;;;;;;;15.95;100.00;100806.22;5031057;28;20088;-48
2023/07/31 04:05:54;;;;;;;0.00;0.00;;;;;;;15.93;100.00;100808.31;5031004;28;20032;-50
2023/07/31 04:08:19;;;;;;;0.00;0.00;;;;;;;15.95;100.00;100795.34;5031095;28;20419;-47
2023/07/31 04:10:44;;;;;;;0.00;0.00;;;;;;;15.98;100.00;100803.06;5030546;28;20083;-49
2023/07/31 04:13:10;;;;;;;0.00;0.00;;;;;;;15.96;100.00;100806.00;5030606;28;20029;-49
2023/07/31 04:15:35;;;;;;;0.00;0.00;;;;;;;15.96;100.00;100800.56;5030537;28;20148;-44
2023/07/31 04:18:00;;;;;;;0.00;0.00;;;;;;;15.96;100.00;100799.75;5031235;28;20357;-40
2023/07/31 04:20:26;;;;;;;0.00;0.00;;;;;;;15.94;100.00;100801.84;5029936;28;20364;-44
2023/07/31 04:22:51;;;;;;;0.00;0.00;;;;;;;15.93;100.00;100794.72;5031135;28;20524;-42
2023/07/31 04:25:17;;;;;;;0.00;0.00;;;;;;;15.87;100.00;100793.72;5031571;28;20042;-43
2023/07/31 04:27:42;;;;;;;0.00;0.00;;;;;;;15.87;100.00;100780.16;5031213;28;20028;-44
2023/07/31 04:30:08;;;;;;;0.00;0.00;;;;;;;15.85;100.00;100790.44;5030744;28;20403;-42
2023/07/31 04:32:35;;;;;;;0.00;0.00;;;;;;;15.86;100.00;100783.09;5031898;28;20025;-42
2023/07/31 04:35:00;;;;;;;0.00;0.00;;;;;;;15.85;100.00;100785.00;5034158;28;20076;-41
2023/07/31 04:37:25;;;;;;;0.00;0.00;;;;;;;15.83;100.00;100791.69;5033650;28;20017;-43
2023/07/31 04:39:51;;;;;;;0.00;0.00;;;;;;;15.83;100.00;100789.81;5034948;28;20025;-39
2023/07/31 04:42:16;;;;;;;0.00;0.00;;;;;;;15.83;100.00;100787.09;5039912;28;20033;-39
2023/07/31 04:44:41;;;;;;;0.00;0.00;;;;;;;15.82;100.00;100793.53;5036918;28;20026;-40
2023/07/31 04:47:07;;;;;;;0.00;0.00;;;;;;;15.83;100.00;100788.97;5031819;28;20021;-40
2023/07/31 04:49:32;;;;;;;0.00;0.00;;;;;;;15.81;100.00;100781.03;5034297;28;20220;-39
2023/07/31 04:51:58;;;;;;;0.00;0.00;;;;;;;15.76;100.00;100783.56;5036419;28;20030;-40
2023/07/31 04:54:23;;;;;;;0.00;0.00;;;;;;;15.74;100.00;100774.81;5032872;28;20112;-41
2023/07/31 04:56:48;;;;;;;0.00;0.00;;;;;;;15.72;100.00;100787.78;5034336;28;20138;-41
2023/07/31 04:59:14;;;;;;;0.00;0.00;;;;;;;15.70;100.00;100779.03;5036861;28;20428;-39
2023/07/31 05:01:39;;;;;;;0.00;0.00;;;;;;;15.65;100.00;100778.81;5033729;28;20365;-40
2023/07/31 05:04:04;;;;;;;0.00;0.00;;;;;;;15.57;100.00;100780.72;5031346;28;20034;-37
2023/07/31 05:06:30;;;;;;;0.00;0.00;;;;;;;15.49;100.00;100777.44;5031732;28;20021;-41
2023/07/31 05:08:55;;;;;;;0.00;0.00;;;;;;;15.41;100.00;100770.38;5031158;28;20108;-40
2023/07/31 05:11:21;;;;;;;0.00;0.00;;;;;;;15.39;100.00;100772.47;5030439;28;20025;-40
2023/07/31 05:13:46;;;;;;;0.00;0.00;;;;;;;15.37;100.00;100763.69;5030504;28;20112;-42
2023/07/31 05:16:11;;;;;;;0.00;0.00;;;;;;;15.37;100.00;100769.13;5031380;28;20033;-42
2023/07/31 05:18:37;;;;;;;0.00;0.00;;;;;;;15.39;100.00;100760.78;5033711;28;20391;-43
2023/07/31 05:21:02;;;;;;;0.00;0.00;;;;;;;15.41;100.00;100770.38;5033595;28;20033;-44
2023/07/31 05:23:28;;;;;;;0.00;0.00;;;;;;;15.40;100.00;100763.25;5033842;28;20021;-43
2023/07/31 05:25:53;;;;;;;0.00;0.00;;;;;;;15.41;100.00;100758.69;5033678;28;20037;-43
2023/07/31 05:28:18;;;;;;;0.00;0.00;;;;;;;15.44;100.00;100753.66;5033814;28;20021;-44
2023/07/31 05:30:44;;;;;;;0.00;0.00;;;;;;;15.47;100.00;100752.41;5033404;28;20378;-43
2023/07/31 05:33:09;;;;;;;0.00;0.00;;;;;;;15.48;100.00;100741.34;5033566;28;20030;-41
2023/07/31 05:35:34;;;;;;;0.00;0.00;;;;;;;15.47;100.00;100750.50;5033302;28;20097;-42
2023/07/31 05:38:00;;;;;;;0.00;0.00;;;;;;;15.47;100.00;100749.69;5032229;28;20394;-44
2023/07/31 05:40:25;;;;;;;0.00;0.00;;;;;;;15.48;100.00;100744.06;5033315;28;20144;-44
2023/07/31 05:42:50;;;;;;;0.00;0.00;;;;;;;15.49;100.00;100745.72;5032936;28;20564;-43
2023/07/31 05:45:16;;;;;;;0.00;0.00;;;;;;;15.53;100.00;100746.09;5033073;28;20034;-43
2023/07/31 05:47:41;;;;;;;0.00;0.00;;;;;;;15.54;100.00;100742.34;5032901;28;20017;-43
2023/07/31 05:50:07;;;;;;;0.00;0.00;;;;;;;15.57;100.00;100742.75;5033081;28;20037;-43
2023/07/31 05:52:32;;;;;;;0.00;0.00;;;;;;;15.61;100.00;100735.00;5032865;28;20495;-44
2023/07/31 05:54:57;;;;;;;0.00;0.00;;;;;;;15.66;100.00;100739.78;5033064;28;20029;-43
2023/07/31 05:57:23;;;;;;;0.00;0.00;;;;;;;15.70;100.00;100735.63;5032265;28;20049;-47
2023/07/31 05:59:48;;;;;;;0.00;0.00;;;;;;;15.76;100.00;100740.97;5032591;28;20033;-45
2023/07/31 06:02:14;;;;;;;0.00;0.00;;;;;;;15.81;100.00;100732.19;5032854;28;20025;-45
2023/07/31 06:04:39;;;;;;;0.00;0.00;;;;;;;15.82;100.00;100738.44;5032812;28;20365;-45
2023/07/31 06:07:05;;;;;;;0.00;0.00;;;;;;;15.86;100.00;100736.97;5032800;28;20056;-43
2023/07/31 06:09:30;;;;;;;0.00;0.00;;;;;;;15.90;100.00;100733.56;5032909;28;20120;-44
2023/07/31 06:11:56;;;;;;;0.00;0.00;;;;;;;15.93;100.00;100719.59;5032575;28;20036;-44
2023/07/31 06:14:21;;;;;;;0.00;0.00;;;;;;;15.98;100.00;100722.47;5032632;28;20109;-42
2023/07/31 06:16:47;;;;;;;0.00;0.00;;;;;;;16.02;100.00;100729.13;5032577;28;20472;-42
2023/07/31 06:19:12;;;;;;;0.00;0.00;;;;;;;16.06;100.00;100723.25;5032743;28;20057;-42
2023/07/31 06:21:38;;;;;;;0.00;0.00;;;;;;;16.07;100.00;100720.31;5032376;28;20026;-46
2023/07/31 06:24:05;;;;;;;0.00;0.00;;;;;;;16.08;100.00;100715.72;5032230;28;20025;-43
2023/07/31 06:26:30;;;;;;;0.00;0.00;;;;;;;16.11;100.00;100723.41;5032190;28;20396;-42
2023/07/31 06:28:56;;;;;;;0.00;0.00;;;;;;;16.10;100.00;100719.88;5032245;28;20029;-47
2023/07/31 06:31:22;;;;;;;0.00;0.00;;;;;;;16.14;100.00;100720.25;5032246;28;20052;-46
2023/07/31 06:33:49;;;;;;;0.00;0.00;;;;;;;16.16;100.00;100716.25;5032084;28;20045;-46
2023/07/31 06:36:14;;;;;;;0.00;0.00;;;;;;;16.14;100.00;100725.66;5032268;28;20437;-48
2023/07/31 06:38:40;;;;;;;0.00;0.00;;;;;;;16.17;100.00;100708.97;5032017;28;20024;-47
2023/07/31 06:41:05;;;;;;;0.00;0.00;;;;;;;16.19;100.00;100706.84;5032133;28;20032;-48
2023/07/31 06:43:31;;;;;;;0.00;0.00;;;;;;;16.20;100.00;100719.38;5031707;28;20468;-49
2023/07/31 06:45:56;;;;;;;0.00;0.00;;;;;;;16.22;100.00;100723.53;5031966;28;20108;-47
2023/07/31 06:48:21;;;;;;;0.00;0.00;;;;;;;16.21;100.00;100721.84;5031667;28;20083;-49
2023/07/31 06:50:47;;;;;;;0.00;0.00;;;;;;;16.26;100.00;100713.03;5031982;28;20079;-50
2023/07/31 06:53:12;;;;;;;0.00;0.00;;;;;;;16.27;100.00;100706.53;5031939;28;20025;-50
2023/07/31 06:55:37;;;;;;;0.00;0.00;;;;;;;16.28;100.00;100710.13;5031730;28;20039;-47
2023/07/31 06:58:03;;;;;;;0.00;0.00;;;;;;;16.31;100.00;100723.25;5031298;28;20042;-47
2023/07/31 07:00:28;;;;;;;0.00;0.00;;;;;;;16.34;100.00;100715.47;5031894;28;20035;-45
2023/07/31 07:02:54;;;;;;;0.00;0.00;;;;;;;16.34;100.00;100712.75;5031255;28;20707;-47
2023/07/31 07:05:19;;;;;;;0.00;0.00;;;;;;;16.39;100.00;100715.63;5030404;28;20076;-45
2023/07/31 07:07:45;;;;;;;0.00;0.00;;;;;;;16.41;100.00;100710.81;5031368;28;20056;-46
2023/07/31 07:10:10;;;;;;;0.00;0.00;;;;;;;16.42;100.00;100712.47;5031473;28;20038;-48
2023/07/31 07:12:36;;;;;;;0.00;0.00;;;;;;;16.45;100.00;100722.88;5031320;28;20381;-43
2023/07/31 07:15:02;;;;;;;0.00;0.00;;;;;;;16.46;100.00;100719.13;5031661;28;20029;-42
2023/07/31 07:17:31;;;;;;;0.00;0.00;;;;;;;16.49;100.00;100717.03;5031353;28;20167;-46
2023/07/31 07:19:57;;;;;;;0.00;0.00;;;;;;;16.45;100.00;100717.44;5031410;28;20057;-46
2023/07/31 07:22:22;;;;;;;0.00;0.00;;;;;;;16.52;100.00;100717.41;5046496;28;20158;-46
2023/07/31 07:24:47;;;;;;;0.00;0.00;;;;;;;16.55;100.00;100713.41;5031322;28;20053;-44
2023/07/31 07:27:13;;;;;;;0.00;0.00;;;;;;;16.53;100.00;100710.91;5031205;28;20057;-44
2023/07/31 07:29:38;;;;;;;0.00;0.00;;;;;;;16.58;100.00;100716.50;5030138;28;20369;-42
2023/07/31 07:32:04;;;;;;;0.00;0.00;;;;;;;16.58;100.00;100707.50;5031208;28;20029;-46
2023/07/31 07:34:29;;;;;;;0.00;0.00;;;;;;;16.62;100.00;100714.19;5030807;28;20108;-48
2023/07/31 07:36:55;;;;;;;0.00;0.00;;;;;;;16.61;100.00;100709.78;5030917;28;20033;-48
2023/07/31 07:39:21;;;;;;;0.00;0.00;;;;;;;16.63;100.00;100718.53;5030348;28;20029;-49
2023/07/31 07:41:46;;;;;;;0.00;0.00;;;;;;;16.63;100.00;100718.53;5030999;28;20491;-46
2023/07/31 07:44:12;;;;;;;0.00;0.00;;;;;;;16.65;100.00;100736.28;5031481;28;20488;-43
2023/07/31 07:46:38;;;;;;;0.00;0.00;;;;;;;16.67;100.00;100707.00;5030974;28;20025;-44
2023/07/31 07:49:04;;;;;;;0.00;0.00;;;;;;;16.71;100.00;100718.25;5030782;28;20021;-47
2023/07/31 07:51:31;;;;;;;0.00;0.00;;;;;;;16.71;100.00;100717.41;5030897;28;20056;-49
2023/07/31 07:53:57;;;;;;;0.00;0.00;;;;;;;16.76;100.00;100712.97;5040292;28;20029;-48
2023/07/31 07:56:23;;;;;;;0.00;0.00;;;;;;;16.77;100.00;100703.81;5050435;28;20090;-50
2023/07/31 07:58:50;;;;;;;0.00;0.00;;;;;;;16.77;100.00;100716.50;5050393;28;20263;-51
2023/07/31 08:01:15;;;;;;;0.00;0.00;;;;;;;16.71;100.00;100701.13;5050744;28;20029;-46
2023/07/31 08:03:41;;;;;;;0.00;0.00;;;;;;;16.73;100.00;100699.84;5050467;28;20033;-48
2023/07/31 08:06:09;;;;;;;0.00;0.00;;;;;;;16.79;100.00;100696.22;5050506;28;20044;-50
2023/07/31 08:08:34;;;;;;;0.00;0.00;;;;;;;16.78;100.00;100705.44;5050949;28;20078;-48
2023/07/31 08:10:59;;;;;;;0.00;0.00;;;;;;;16.85;100.00;100689.06;5050434;28;20041;-48
2023/07/31 08:13:25;;;;;;;0.00;0.00;;;;;;;16.81;100.00;100696.84;5050421;28;20032;-48
2023/07/31 08:15:50;;;;;;;0.00;0.00;;;;;;;16.82;100.00;100695.78;5050725;28;20491;-48
2023/07/31 08:18:17;;;;;;;0.00;0.00;;;;;;;16.82;100.00;100693.06;5050204;28;20040;-45
2023/07/31 08:20:42;;;;;;;0.00;0.00;;;;;;;16.86;100.00;100688.00;5050458;28;20032;-48
2023/07/31 08:23:07;;;;;;;0.05;0.05;;;;;;;16.86;100.00;100685.28;5049135;28;20033;-47
2023/07/31 08:25:35;;;;;;;0.00;0.00;;;;;;;16.97;100.00;100680.97;5050113;28;20310;-44
2023/07/31 08:28:01;;;;;;;0.00;0.00;;;;;;;16.95;100.00;100677.66;5050293;28;20052;-46
2023/07/31 08:30:26;;;;;;;0.00;0.00;;;;;;;16.96;100.00;100685.59;5050314;28;20060;-48
2023/07/31 08:32:51;;;;;;;0.00;0.00;;;;;;;17.03;100.00;100674.63;5050465;28;20140;-47
2023/07/31 08:35:17;;;;;;;0.00;0.00;;;;;;;17.06;100.00;100677.72;5050131;28;20026;-48
2023/07/31 08:37:42;;;;;;;0.00;0.00;;;;;;;17.09;100.00;100676.44;5050624;28;20035;-45
2023/07/31 08:40:08;;;;;;;0.00;0.00;;;;;;;17.11;100.00;100666.16;5050510;28;20298;-47
2023/07/31 08:42:33;;;;;;;0.00;0.00;;;;;;;17.16;100.00;100662.75;5049463;28;20041;-44
2023/07/31 08:44:59;;;;;;;0.00;0.00;;;;;;;17.19;100.00;100659.56;5050240;28;20108;-50
2023/07/31 08:47:26;;;;;;;0.00;0.00;;;;;;;17.34;100.00;100658.09;5049376;28;20025;-46
2023/07/31 08:49:52;;;;;;;0.00;0.00;;;;;;;17.28;100.00;100664.47;5050873;28;20032;-45
2023/07/31 08:52:17;;;;;;;0.00;0.00;;;;;;;17.28;100.00;100656.28;5054104;28;20025;-44
2023/07/31 08:54:43;;;;;;;0.00;0.00;;;;;;;17.39;100.00;100649.22;5054302;28;20056;-44
2023/07/31 08:57:10;;;;;;;0.00;0.00;;;;;;;17.41;100.00;100654.47;5055169;28;20510;-42
2023/07/31 08:59:36;;;;;;;0.00;0.00;;;;;;;17.43;100.00;100653.16;5055020;28;20132;-44
2023/07/31 09:02:05;;;;;;;0.00;0.00;;;;;;;17.49;100.00;100643.25;5038226;28;20059;-47
2023/07/31 09:04:32;;;;;;;0.00;0.00;;;;;;;17.49;100.00;100648.69;5036315;28;20026;-45
2023/07/31 09:07:00;;;;;;;0.00;0.00;;;;;;;17.48;100.00;100633.41;5033747;28;20134;-44
2023/07/31 09:09:26;;;;;;;0.00;0.00;;;;;;;17.58;100.00;100639.09;5034259;28;20026;-46
2023/07/31 09:11:52;;;;;;;0.00;0.00;;;;;;;17.62;100.00;100628.59;5035085;28;20017;-44
2023/07/31 09:14:18;;;;;;;0.00;0.00;;;;;;;17.74;100.00;100630.25;5035414;28;20578;-45
2023/07/31 09:17:02;;;;;;;0.00;0.00;;;;;;;17.91;100.00;100621.44;5034340;28;20088;-45
2023/07/31 09:19:37;;;;;;;0.00;0.00;;;;;;;17.95;100.00;100619.91;5033901;28;20056;-44
2023/07/31 09:22:02;;;;;;;0.00;0.00;;;;;;;17.96;100.00;100616.13;5034011;28;20036;-43
2023/07/31 09:24:31;;;;;;;0.00;0.00;;;;;;;18.02;100.00;100617.91;5034010;28;20030;-45
2023/07/31 09:26:58;;;;;;;0.00;0.00;;;;;;;18.18;100.00;100600.84;5034204;28;20249;-43
2023/07/31 09:29:24;;;;;;;0.00;0.00;;;;;;;18.27;100.00;100604.00;5033319;28;20075;-45
2023/07/31 09:31:50;;;;;;;0.00;0.00;;;;;;;18.34;100.00;100598.44;5033828;28;20022;-45
2023/07/31 09:34:16;;;;;;;0.00;0.00;;;;;;;18.47;100.00;100587.28;5033300;28;20361;-46
2023/07/31 09:36:46;;;;;;;0.00;0.00;;;;;;;18.47;100.00;100581.00;5033348;28;20080;-45
2023/07/31 09:39:12;;;;;;;0.00;0.00;;;;;;;18.37;100.00;100587.06;5033292;28;20029;-47
2023/07/31 09:41:47;;;;;;;0.00;0.00;;;;;;;18.35;100.00;100583.75;5033000;28;20485;-43
2023/07/31 09:44:13;;;;;;;0.00;0.00;;;;;;;18.44;100.00;100587.78;5033241;28;20439;-47
2023/07/31 09:46:38;;;;;;;0.00;0.00;;;;;;;18.35;100.00;100578.31;5033359;28;20029;-46
2023/07/31 09:49:05;;;;;;;0.00;0.00;;;;;;;18.30;100.00;100583.63;5033144;28;20450;-47
2023/07/31 09:51:31;;;;;;;0.00;0.00;;;;;;;18.32;100.00;100584.22;5033325;28;20033;-45
2023/07/31 09:53:56;;;;;;;0.00;0.00;;;;;;;18.31;100.00;100585.31;5032922;28;20342;-43
2023/07/31 09:56:23;;;;;;;0.00;0.00;;;;;;;18.29;100.00;100576.53;5032954;28;20040;-44
2023/07/31 09:58:49;;;;;;;0.00;0.00;;;;;;;18.20;100.00;100574.19;5032919;28;20454;-46
2023/07/31 10:01:14;;;;;;;0.00;0.00;;;;;;;18.27;100.00;100582.22;5030679;28;20021;-42
2023/07/31 10:03:40;;;;;;;0.00;0.00;;;;;;;18.16;100.00;100583.88;5031513;28;20033;-46
2023/07/31 10:06:06;;;;;;;0.00;0.00;;;;;;;18.34;100.00;100584.81;5031425;28;20030;-47
2023/07/31 10:08:33;;;;;;;0.00;0.00;;;;;;;18.25;100.00;100583.56;5032829;28;20384;-49
2023/07/31 10:11:00;;;;;;;0.00;0.00;;;;;;;18.34;100.00;100593.81;5032562;28;20033;-45
2023/07/31 10:13:27;;;;;;;0.00;0.00;;;;;;;18.33;100.00;100591.34;5031236;28;20053;-46
2023/07/31 10:15:53;;;;;;;0.00;0.00;;;;;;;18.27;100.00;100597.75;5032312;28;20440;-46
2023/07/31 10:18:20;;;;;;;0.00;0.00;;;;;;;18.38;100.00;100595.00;5032735;28;20056;-48
2023/07/31 10:20:46;;;;;;;0.00;0.00;;;;;;;18.30;100.00;100597.25;5032389;28;20484;-45
2023/07/31 10:23:13;;;;;;;0.00;0.00;;;;;;;18.34;100.00;100593.81;5032405;28;20105;-48
2023/07/31 10:25:38;;;;;;;0.00;0.00;;;;;;;18.39;100.00;100591.22;5031476;28;20429;-48
2023/07/31 10:28:04;;;;;;;0.00;0.00;;;;;;;18.40;100.00;100582.00;5032467;28;20036;-47
2023/07/31 10:30:30;;;;;;;0.00;0.00;;;;;;;18.37;100.00;100582.44;5031919;28;20032;-47
2023/07/31 10:32:56;;;;;;;0.00;0.00;;;;;;;18.51;100.00;100585.75;5032161;28;20456;-47
2023/07/31 10:35:22;;;;;;;0.00;0.00;;;;;;;18.64;100.00;100582.75;5033369;28;20064;-46
2023/07/31 10:37:47;;;;;;;0.00;0.00;;;;;;;18.55;100.00;100570.56;5032156;28;20037;-45
2023/07/31 10:40:20;;;;;;;0.00;0.00;;;;;;;18.69;100.00;100567.56;5032471;28;20021;-47
2023/07/31 10:42:47;;;;;;;0.00;0.00;;;;;;;18.54;100.00;100571.63;5031319;28;20025;-50
2023/07/31 10:45:13;;;;;;;0.00;0.00;;;;;;;18.52;100.00;100571.03;5031996;28;20341;-48
2023/07/31 10:47:39;;;;;;;0.00;0.00;;;;;;;18.57;100.00;100576.59;5032109;28;20369;-46
2023/07/31 10:50:21;;;;;;;0.00;0.00;;;;;;;18.52;100.00;100575.69;5032067;28;20032;-46
2023/07/31 10:53:04;;;;;;;0.00;0.00;;;;;;;18.40;100.00;100576.53;5032108;28;20025;-44
2023/07/31 10:55:40;;;;;;;0.00;0.00;;;;;;;18.44;100.00;100587.78;5031770;28;20306;-44
2023/07/31 10:58:06;;;;;;;0.00;0.00;;;;;;;18.35;100.00;100592.78;5031309;28;20053;-47
2023/07/31 11:00:32;;;;;;;0.00;0.00;;;;;;;18.46;100.00;100584.78;5031633;28;20030;-49
2023/07/31 11:03:03;;;;;;;0.00;0.00;;;;;;;18.53;100.00;100575.41;5031633;28;20384;-48
2023/07/31 11:05:50;;;;;;;0.00;0.00;;;;;;;18.71;100.00;100581.78;5031607;28;20033;-48
2023/07/31 11:08:26;;;;;;;0.00;0.00;;;;;;;18.73;100.00;100558.66;5031782;28;20030;-49
2023/07/31 11:11:01;;;;;;;0.00;0.00;;;;;;;18.77;100.00;100562.59;5031812;28;20034;-48
2023/07/31 11:13:27;;;;;;;0.00;0.00;;;;;;;18.80;100.00;100553.06;5030477;28;20487;-45